Westree, Canada
Current Conditions -  °F | °C
As of 3:00 AM on Friday 24 Oct 2014 (Local Time) from CYSB Reporting Station
Clear Clear  
Wind Chill: 34°   Ceiling: Unl
Heat Index: 37°   Visibility: 15mi
Dew Point: 30°   Wind: 5mph
Humidity: 75%   Direction: 310°NW
Pressure: 30.02"   Gusts: NA
Location:  47.42°N, 81.53°W
Report Text: CYSB 240700Z 31004KT 15SM SKC 03/M01 A3002 RMK SLP175
Loading
Personal Weather Stations






























Interactive Weather Map
Tropical Storm Tracking
New forecast layout! Learn more

10-Day Weather Forecast

Advertisements
Track Severe Weather on mobile